createdAt,value
2019-04-26T00:01:58.780Z,1.60
2019-04-26T00:04:29.066Z,2.03
2019-04-26T00:06:59.012Z,3.03
2019-04-26T00:09:30.593Z,2.70
2019-04-26T00:12:03.467Z,2.40
2019-04-26T00:14:50.606Z,2.97
2019-04-26T00:17:22.374Z,3.70
2019-04-26T00:19:52.414Z,2.03
2019-04-26T00:22:22.423Z,2.40
2019-04-26T00:24:52.083Z,2.60
2019-04-26T00:27:21.893Z,2.50
2019-04-26T00:29:51.554Z,1.70
2019-04-26T00:32:21.477Z,3.60
2019-04-26T00:34:51.524Z,3.50
2019-04-26T00:37:21.216Z,3.10
2019-04-26T00:39:51.291Z,1.10
2019-04-26T00:42:21.056Z,1.57
2019-04-26T00:44:50.901Z,2.53
2019-04-26T00:47:21.519Z,1.50
2019-04-26T00:49:51.780Z,3.53
2019-04-26T00:52:22.403Z,3.20
2019-04-26T00:54:52.421Z,1.83
2019-04-26T00:57:22.755Z,1.40
2019-04-26T00:59:53.442Z,2.23
2019-04-26T01:02:33.514Z,1.97
2019-04-26T01:05:03.093Z,1.57
2019-04-26T01:07:32.905Z,2.77
2019-04-26T01:10:02.413Z,2.10
2019-04-26T01:12:32.238Z,2.30
2019-04-26T01:15:01.925Z,3.87
2019-04-26T01:17:31.700Z,1.50
2019-04-26T01:20:01.420Z,2.37
2019-04-26T01:22:35.657Z,3.00
2019-04-26T01:25:07.114Z,3.70
2019-04-26T01:27:38.388Z,2.43
2019-04-26T01:30:10.754Z,2.13
2019-04-26T01:32:42.663Z,2.93
2019-04-26T01:35:12.732Z,2.70
2019-04-26T01:37:45.390Z,3.80
2019-04-26T01:40:17.142Z,3.20
2019-04-26T01:43:03.256Z,2.57
2019-04-26T01:45:37.500Z,3.27
2019-04-26T01:48:13.360Z,2.40
2019-04-26T01:50:43.152Z,3.00
2019-04-26T01:53:12.879Z,4.67
2019-04-26T01:55:42.660Z,3.27
2019-04-26T01:58:12.279Z,4.47
2019-04-26T02:00:41.708Z,4.20
2019-04-26T02:03:16.190Z,4.13
2019-04-26T02:05:45.771Z,3.00
2019-04-26T02:08:15.532Z,2.80
2019-04-26T02:10:45.202Z,3.47
2019-04-26T02:13:15.031Z,2.93
2019-04-26T02:15:44.667Z,3.00
2019-04-26T02:18:14.430Z,3.47
2019-04-26T02:21:13.443Z,3.33
2019-04-26T02:23:50.601Z,3.87
2019-04-26T02:26:34.872Z,4.03
2019-04-26T02:29:09.294Z,3.43
2019-04-26T02:31:40.539Z,4.87
2019-04-26T02:34:11.861Z,3.10
2019-04-26T02:36:56.103Z,3.63
2019-04-26T02:39:22.912Z,4.43
2019-04-26T02:41:56.916Z,4.20
2019-04-26T02:44:31.483Z,5.20
2019-04-26T02:47:36.744Z,3.47
2019-04-26T02:50:12.080Z,6.77
2019-04-26T02:53:16.203Z,3.97
2019-04-26T02:56:23.454Z,3.73
2019-04-26T02:59:06.537Z,4.53
2019-04-26T03:01:38.213Z,3.37
2019-04-26T03:04:07.688Z,5.07
2019-04-26T03:06:41.192Z,5.23
2019-04-26T03:09:13.833Z,4.60
2019-04-26T03:12:00.115Z,5.33
2019-04-26T03:14:32.489Z,7.03
2019-04-26T03:17:05.555Z,9.03
2019-04-26T03:20:08.410Z,10.00
2019-04-26T03:22:45.337Z,13.80
2019-04-26T03:25:24.975Z,14.60
2019-04-26T03:28:24.254Z,19.73
2019-04-26T03:31:10.809Z,18.40
2019-04-26T03:33:56.495Z,15.57
2019-04-26T03:37:19.054Z,18.07
2019-04-26T03:40:25.772Z,16.00
2019-04-26T03:43:20.767Z,20.07
2019-04-26T03:46:33.560Z,20.67
2019-04-26T03:49:23.158Z,20.80
2019-04-26T03:52:15.204Z,22.10
2019-04-26T03:54:49.638Z,24.23
2019-04-26T03:57:57.195Z,21.27
2019-04-26T04:00:35.243Z,19.33
2019-04-26T04:03:15.627Z,23.37
2019-04-26T04:05:49.878Z,21.33
2019-04-26T04:08:24.169Z,22.97
2019-04-26T04:10:58.494Z,26.87
2019-04-26T04:13:56.696Z,20.57
2019-04-26T04:16:55.129Z,25.33
2019-04-26T04:20:00.469Z,20.10
2019-04-26T04:22:45.494Z,25.60
2019-04-26T04:25:39.482Z,21.80
2019-04-26T04:28:48.260Z,19.50
2019-04-26T04:31:41.742Z,26.63
2019-04-26T04:34:26.264Z,19.50
2019-04-26T04:37:00.599Z,22.53
2019-04-26T04:40:04.443Z,19.83
2019-04-26T04:42:54.806Z,20.27
2019-04-26T04:46:08.259Z,18.87
2019-04-26T04:49:09.233Z,20.47
2019-04-26T04:52:13.376Z,16.67
2019-04-26T04:55:03.258Z,16.60
2019-04-26T04:57:50.297Z,15.30
2019-04-26T05:00:45.080Z,15.57
2019-04-26T05:03:49.367Z,16.07
2019-04-26T05:06:49.052Z,17.63
2019-04-26T05:09:32.312Z,17.40
2019-04-26T05:12:24.347Z,16.73
2019-04-26T05:15:21.054Z,17.50
2019-04-26T05:18:03.855Z,15.33
2019-04-26T05:20:38.536Z,15.87
2019-04-26T05:23:32.202Z,15.37
2019-04-26T05:26:49.374Z,17.93
2019-04-26T05:29:36.881Z,18.50
2019-04-26T05:32:28.686Z,17.83
2019-04-26T05:35:53.164Z,18.63
2019-04-26T05:38:42.255Z,15.60
2019-04-26T05:41:41.707Z,17.80
2019-04-26T05:44:41.140Z,19.03
2019-04-26T05:47:28.552Z,17.97
2019-04-26T05:50:32.017Z,18.70
2019-04-26T05:53:25.458Z,19.93
2019-04-26T05:56:19.172Z,22.67
2019-04-26T05:59:14.269Z,19.63
2019-04-26T06:02:30.272Z,23.10
2019-04-26T06:05:24.293Z,20.77
2019-04-26T06:08:05.350Z,21.03
2019-04-26T06:10:49.098Z,20.53
2019-04-26T06:13:43.908Z,20.47
2019-04-26T06:17:06.870Z,21.17
2019-04-26T06:19:43.542Z,18.93
2019-04-26T06:22:32.733Z,19.13
2019-04-26T06:25:35.605Z,21.53
2019-04-26T06:28:27.768Z,19.07
2019-04-26T06:31:35.062Z,17.57
2019-04-26T06:34:15.544Z,18.27
2019-04-26T06:37:10.980Z,19.70
2019-04-26T06:39:51.193Z,18.97
2019-04-26T06:42:31.248Z,22.17
2019-04-26T06:45:19.328Z,17.43
2019-04-26T06:48:32.285Z,18.07
2019-04-26T06:51:24.087Z,15.57
2019-04-26T06:54:09.476Z,17.43
2019-04-26T06:57:49.320Z,15.80
2019-04-26T07:00:25.313Z,14.20
2019-04-26T07:03:20.259Z,15.13
2019-04-26T07:05:58.755Z,13.50
2019-04-26T07:08:57.974Z,15.43
2019-04-26T07:12:08.461Z,15.17
2019-04-26T07:15:09.442Z,15.80
2019-04-26T07:17:55.125Z,18.43
2019-04-26T07:20:42.050Z,15.40
2019-04-26T07:23:39.618Z,15.77
2019-04-26T07:26:36.383Z,15.03
2019-04-26T07:29:37.121Z,11.97
2019-04-26T07:32:50.419Z,14.07
2019-04-26T07:35:49.264Z,12.60
2019-04-26T07:38:53.313Z,14.30
2019-04-26T07:42:01.557Z,12.70
2019-04-26T07:45:12.409Z,13.47
2019-04-26T07:48:19.809Z,12.57
2019-04-26T07:51:15.029Z,11.93
2019-04-26T07:54:23.978Z,11.87
2019-04-26T07:57:42.912Z,12.27
2019-04-26T08:00:25.655Z,12.70
2019-04-26T08:03:22.169Z,11.13
2019-04-26T08:05:56.515Z,10.97
2019-04-26T08:08:30.862Z,11.67
2019-04-26T08:11:16.652Z,11.37
2019-04-26T08:14:04.624Z,13.83
2019-04-26T08:16:42.818Z,11.87
2019-04-26T08:19:17.426Z,13.13
2019-04-26T08:21:51.088Z,16.27
2019-04-26T08:24:27.769Z,12.50
2019-04-26T08:27:13.391Z,11.57
2019-04-26T08:29:41.167Z,13.17
2019-04-26T08:32:15.908Z,14.13
2019-04-26T08:34:50.274Z,12.60
2019-04-26T08:37:21.932Z,15.57
2019-04-26T08:39:53.061Z,13.87
2019-04-26T08:42:25.352Z,14.53
2019-04-26T08:45:04.577Z,13.73
2019-04-26T08:47:53.489Z,14.93
2019-04-26T08:50:33.071Z,15.03
2019-04-26T08:53:04.547Z,12.10
2019-04-26T08:55:36.409Z,14.00
2019-04-26T08:58:09.379Z,14.30
2019-04-26T09:00:56.383Z,13.60
2019-04-26T09:03:47.722Z,14.80
2019-04-26T09:06:36.612Z,14.57
2019-04-26T09:09:23.029Z,15.33
2019-04-26T09:11:59.780Z,17.73
2019-04-26T09:14:30.350Z,14.47
2019-04-26T09:17:00.197Z,16.60
2019-04-26T09:19:31.898Z,18.40
2019-04-26T09:22:13.295Z,16.97
2019-04-26T09:24:47.974Z,15.00
2019-04-26T09:27:20.975Z,15.27
2019-04-26T09:30:00.574Z,15.37
2019-04-26T09:32:31.706Z,14.43
2019-04-26T09:35:01.212Z,15.23
2019-04-26T09:37:31.459Z,16.13
2019-04-26T09:40:10.084Z,14.03
2019-04-26T09:42:34.481Z,12.70
2019-04-26T09:45:06.886Z,16.40
2019-04-26T09:47:38.169Z,13.30
2019-04-26T09:50:17.070Z,12.73
2019-04-26T09:52:54.608Z,12.23
2019-04-26T09:55:34.811Z,12.80
2019-04-26T09:57:57.122Z,10.50
2019-04-26T10:00:29.771Z,11.27
2019-04-26T10:02:59.531Z,10.97
2019-04-26T10:05:29.954Z,11.73
2019-04-26T10:07:59.705Z,12.07
2019-04-26T10:10:35.179Z,9.17
2019-04-26T10:13:08.375Z,9.87
2019-04-26T10:15:39.095Z,12.13
2019-04-26T10:18:08.998Z,10.33
2019-04-26T10:20:38.905Z,10.03
2019-04-26T10:23:09.125Z,8.27
2019-04-26T10:25:38.801Z,13.27
2019-04-26T10:28:11.740Z,11.50
2019-04-26T10:30:42.299Z,10.70
2019-04-26T10:33:11.805Z,9.93
2019-04-26T10:35:41.724Z,10.50
2019-04-26T10:38:11.351Z,12.10
2019-04-26T10:40:41.050Z,16.20
2019-04-26T10:43:10.854Z,13.70
2019-04-26T10:45:40.527Z,10.60
2019-04-26T10:48:14.023Z,13.43
2019-04-26T10:50:41.846Z,9.27
2019-04-26T10:53:18.508Z,9.53
2019-04-26T10:55:53.144Z,10.30
2019-04-26T10:58:40.410Z,12.00
2019-04-26T11:01:12.833Z,13.30
2019-04-26T11:03:42.649Z,10.83
2019-04-26T11:06:12.522Z,12.40
2019-04-26T11:08:42.456Z,11.10
2019-04-26T11:11:12.293Z,12.17
2019-04-26T11:13:41.920Z,14.17
2019-04-26T11:16:11.689Z,12.73
2019-04-26T11:18:41.357Z,13.23
2019-04-26T11:21:11.111Z,14.07
2019-04-26T11:23:45.014Z,13.27
2019-04-26T11:26:12.516Z,12.40
2019-04-26T11:28:42.380Z,13.83
2019-04-26T11:31:12.331Z,15.60
2019-04-26T11:33:44.988Z,15.77
2019-04-26T11:36:13.624Z,20.80
2019-04-26T11:38:43.269Z,17.23
2019-04-26T11:41:13.065Z,19.07
2019-04-26T11:43:42.713Z,20.30
2019-04-26T11:46:12.656Z,20.47
2019-04-26T11:48:42.273Z,24.50
2019-04-26T11:51:12.040Z,25.20
2019-04-26T11:53:44.680Z,26.57
2019-04-26T11:56:13.328Z,30.33
2019-04-26T11:58:43.029Z,29.37
2019-04-26T12:01:14.252Z,31.73
2019-04-26T12:03:45.763Z,32.80
2019-04-26T12:06:17.080Z,32.90
2019-04-26T12:08:48.371Z,32.77
2019-04-26T12:11:20.772Z,35.00
2019-04-26T12:13:49.530Z,32.03
2019-04-26T12:16:20.482Z,31.20
2019-04-26T12:18:50.303Z,32.63
2019-04-26T12:21:20.178Z,32.10
2019-04-26T12:23:51.409Z,33.23
2019-04-26T12:26:23.022Z,31.47
2019-04-26T12:28:53.064Z,33.10
2019-04-26T12:31:23.182Z,32.30
2019-04-26T12:33:53.143Z,31.27
2019-04-26T12:36:22.960Z,32.57
2019-04-26T12:38:52.865Z,31.83
2019-04-26T12:41:39.435Z,30.70
2019-04-26T12:43:58.887Z,32.93
2019-04-26T12:46:31.959Z,33.60
2019-04-26T12:49:01.948Z,34.13
2019-04-26T12:51:31.764Z,35.47
2019-04-26T12:54:03.847Z,35.87
2019-04-26T12:56:32.874Z,36.77
2019-04-26T12:59:02.517Z,39.60
2019-04-26T13:01:32.341Z,37.63
2019-04-26T13:04:06.234Z,40.27
2019-04-26T13:06:54.347Z,40.63
2019-04-26T13:09:26.629Z,38.20
2019-04-26T13:12:00.283Z,40.17
2019-04-26T13:14:38.781Z,39.73
2019-04-26T13:17:17.834Z,42.13
2019-04-26T13:19:49.471Z,39.37
2019-04-26T13:22:19.165Z,40.57
2019-04-26T13:24:48.683Z,42.87
2019-04-26T13:27:18.482Z,40.37
2019-04-26T13:30:01.359Z,41.37
2019-04-26T13:32:20.440Z,41.57
2019-04-26T13:34:50.157Z,43.17
2019-04-26T13:37:20.162Z,44.10
2019-04-26T13:39:51.317Z,45.00
2019-04-26T13:42:21.470Z,44.10
2019-04-26T13:44:52.847Z,48.40
2019-04-26T13:47:33.155Z,47.07
2019-04-26T13:50:04.348Z,44.07
2019-04-26T13:52:33.958Z,46.97
2019-04-26T13:55:04.712Z,45.53
2019-04-26T13:57:34.427Z,46.63
2019-04-26T14:00:11.291Z,47.57
2019-04-26T14:02:38.185Z,52.20
2019-04-26T14:05:11.165Z,49.60
2019-04-26T14:07:40.004Z,45.60
2019-04-26T14:10:10.164Z,46.67
2019-04-26T14:12:39.930Z,48.70
2019-04-26T14:15:10.207Z,50.80
2019-04-26T14:17:39.888Z,49.33
2019-04-26T14:20:09.683Z,49.27
2019-04-26T14:22:42.366Z,52.17
2019-04-26T14:25:16.839Z,49.93
2019-04-26T14:27:51.554Z,51.13
2019-04-26T14:30:21.503Z,54.80
2019-04-26T14:32:53.147Z,54.33
2019-04-26T14:35:23.169Z,51.17
2019-04-26T14:37:53.046Z,51.40
2019-04-26T14:40:22.978Z,48.90
2019-04-26T14:43:06.048Z,52.87
2019-04-26T14:45:24.350Z,49.93
2019-04-26T14:47:53.937Z,49.90
2019-04-26T14:50:23.736Z,47.43
2019-04-26T14:52:53.439Z,45.70
2019-04-26T14:55:23.186Z,47.00
2019-04-26T14:57:54.077Z,51.13
2019-04-26T15:00:28.433Z,49.20
2019-04-26T15:02:59.557Z,47.13
2019-04-26T15:05:28.932Z,45.97
2019-04-26T15:07:58.575Z,44.13
2019-04-26T15:10:45.668Z,44.80
2019-04-26T15:13:17.417Z,42.27
2019-04-26T15:15:40.313Z,42.90
2019-04-26T15:18:12.192Z,46.50
2019-04-26T15:20:42.037Z,43.17
2019-04-26T15:23:13.125Z,43.73
2019-04-26T15:25:48.222Z,41.60
2019-04-26T15:28:14.710Z,41.97
2019-04-26T15:30:46.917Z,40.27
2019-04-26T15:33:15.987Z,42.27
2019-04-26T15:35:46.788Z,39.87
2019-04-26T15:38:16.386Z,40.90
2019-04-26T15:40:47.782Z,39.93
2019-04-26T15:43:19.224Z,41.27
2019-04-26T15:45:52.559Z,39.17
2019-04-26T15:48:39.741Z,42.13
2019-04-26T15:51:09.748Z,38.37
2019-04-26T15:53:43.475Z,39.00
2019-04-26T15:56:16.293Z,37.87
2019-04-26T15:58:47.893Z,38.73
2019-04-26T16:01:14.088Z,41.27
2019-04-26T16:03:44.647Z,39.10
2019-04-26T16:06:14.703Z,39.83
2019-04-26T16:08:44.550Z,42.67
2019-04-26T16:11:14.313Z,39.17
2019-04-26T16:13:45.160Z,39.97
2019-04-26T16:16:16.561Z,39.27
2019-04-26T16:18:49.877Z,39.67
2019-04-26T16:21:19.359Z,40.10
2019-04-26T16:23:54.111Z,40.80
2019-04-26T16:26:20.842Z,42.07
2019-04-26T16:29:02.213Z,39.93
2019-04-26T16:31:42.179Z,39.73
2019-04-26T16:34:16.769Z,38.63
2019-04-26T16:36:46.416Z,38.33
2019-04-26T16:39:16.325Z,37.60
2019-04-26T16:41:45.994Z,40.13
2019-04-26T16:44:19.298Z,39.47
2019-04-26T16:46:47.228Z,39.30
2019-04-26T16:49:17.043Z,38.60
2019-04-26T16:51:50.948Z,38.63
2019-04-26T16:54:21.726Z,40.23
2019-04-26T16:56:49.538Z,36.33
2019-04-26T16:59:24.027Z,38.17
2019-04-26T17:01:50.565Z,37.03
2019-04-26T17:04:28.698Z,35.77
2019-04-26T17:06:52.945Z,36.73
2019-04-26T17:09:23.684Z,32.93
2019-04-26T17:11:53.668Z,36.27
2019-04-26T17:14:24.618Z,34.93
2019-04-26T17:16:54.492Z,34.63
2019-04-26T17:19:24.263Z,37.73
2019-04-26T17:22:01.008Z,43.93
2019-04-26T17:24:38.065Z,38.47
2019-04-26T17:27:12.839Z,34.10
2019-04-26T17:29:42.375Z,34.40
2019-04-26T17:32:13.937Z,48.40
2019-04-26T17:34:43.444Z,40.40
2019-04-26T17:37:17.338Z,43.30
2019-04-26T17:39:47.619Z,50.83
2019-04-26T17:42:16.477Z,36.10
2019-04-26T17:44:46.135Z,35.30
2019-04-26T17:47:15.981Z,35.03
2019-04-26T17:49:45.582Z,37.17
2019-04-26T17:52:15.341Z,37.67
2019-04-26T17:54:49.305Z,38.17
2019-04-26T17:57:16.201Z,39.87
2019-04-26T17:59:48.910Z,37.23
2019-04-26T18:02:25.821Z,39.73
2019-04-26T18:04:58.981Z,39.80
2019-04-26T18:07:40.183Z,39.17
2019-04-26T18:09:52.539Z,38.60
2019-04-26T18:12:22.374Z,41.13
2019-04-26T18:14:52.273Z,41.70
2019-04-26T18:17:33.069Z,40.93
2019-04-26T18:20:05.146Z,41.73
2019-04-26T18:22:46.531Z,44.87
2019-04-26T18:25:16.283Z,42.00
2019-04-26T18:27:45.866Z,45.13
2019-04-26T18:30:15.979Z,44.97
2019-04-26T18:32:47.773Z,43.50
2019-04-26T18:35:17.579Z,45.43
2019-04-26T18:37:47.189Z,45.13
2019-04-26T18:40:16.883Z,46.27
2019-04-26T18:42:46.647Z,42.43
2019-04-26T18:45:21.427Z,46.97
2019-04-26T18:47:47.997Z,46.60
2019-04-26T18:50:18.764Z,43.83
2019-04-26T18:52:56.520Z,49.57
2019-04-26T18:55:30.398Z,46.03
2019-04-26T18:58:03.591Z,48.60
2019-04-26T19:00:39.017Z,44.77
2019-04-26T19:03:09.308Z,47.50
2019-04-26T19:05:39.193Z,46.30
2019-04-26T19:08:09.973Z,50.00
2019-04-26T19:10:39.800Z,46.63
2019-04-26T19:13:14.113Z,48.33
2019-04-26T19:15:46.504Z,48.77
2019-04-26T19:18:15.926Z,48.80
2019-04-26T19:20:47.412Z,43.40
2019-04-26T19:23:17.163Z,47.50
2019-04-26T19:25:46.881Z,46.67
2019-04-26T19:28:16.945Z,47.63
2019-04-26T19:30:50.542Z,45.13
2019-04-26T19:33:18.617Z,48.20
2019-04-26T19:35:48.472Z,46.27
2019-04-26T19:38:18.255Z,52.50
2019-04-26T19:40:48.218Z,46.83
2019-04-26T19:43:30.227Z,47.13
2019-04-26T19:45:52.001Z,44.80
2019-04-26T19:48:25.874Z,53.27
2019-04-26T19:50:59.538Z,49.37
2019-04-26T19:53:36.664Z,50.17
2019-04-26T19:56:11.070Z,49.63
2019-04-26T19:58:42.757Z,46.53
2019-04-26T20:01:16.512Z,45.73
2019-04-26T20:03:47.237Z,47.93
2019-04-26T20:06:18.864Z,47.03
2019-04-26T20:08:49.537Z,42.40
2019-04-26T20:11:20.118Z,48.37
2019-04-26T20:13:51.830Z,48.10
2019-04-26T20:16:22.677Z,48.03
2019-04-26T20:18:53.060Z,49.53
2019-04-26T20:21:22.800Z,46.90
2019-04-26T20:23:54.476Z,47.07
2019-04-26T20:26:23.778Z,48.80
2019-04-26T20:28:53.566Z,46.13
2019-04-26T20:31:32.065Z,45.27
2019-04-26T20:34:05.461Z,42.63
2019-04-26T20:36:40.141Z,46.23
2019-04-26T20:39:06.565Z,43.83
2019-04-26T20:41:36.434Z,43.03
2019-04-26T20:44:09.753Z,43.67
2019-04-26T20:46:38.011Z,45.47
2019-04-26T20:49:09.160Z,42.87
2019-04-26T20:51:42.204Z,41.20
2019-04-26T20:54:16.133Z,39.63
2019-04-26T20:56:42.265Z,42.47
2019-04-26T20:59:11.910Z,44.20
2019-04-26T21:01:43.585Z,43.50
2019-04-26T21:04:33.800Z,46.07
2019-04-26T21:06:44.599Z,46.17
2019-04-26T21:09:15.051Z,48.03
2019-04-26T21:11:44.764Z,45.97
2019-04-26T21:14:14.396Z,46.67
2019-04-26T21:16:49.502Z,46.10
2019-04-26T21:19:18.980Z,40.67
2019-04-26T21:21:48.221Z,46.10
2019-04-26T21:24:19.972Z,43.27
2019-04-26T21:26:54.475Z,44.53
2019-04-26T21:29:43.314Z,43.60
2019-04-26T21:32:24.548Z,45.67
2019-04-26T21:34:56.050Z,45.17
2019-04-26T21:37:39.312Z,42.43
2019-04-26T21:40:09.062Z,41.23
2019-04-26T21:42:38.926Z,38.40
2019-04-26T21:45:08.950Z,37.83
2019-04-26T21:47:38.711Z,39.77
2019-04-26T21:50:09.193Z,37.60
2019-04-26T21:52:39.182Z,38.10
2019-04-26T21:55:09.241Z,38.73
2019-04-26T21:57:38.992Z,36.77
2019-04-26T22:00:13.697Z,39.50
2019-04-26T22:02:43.822Z,39.00
2019-04-26T22:05:15.071Z,36.53
2019-04-26T22:07:47.759Z,34.87
2019-04-26T22:10:17.795Z,33.57
2019-04-26T22:12:47.624Z,35.43
2019-04-26T22:15:18.870Z,35.10
2019-04-26T22:17:50.185Z,35.87
2019-04-26T22:20:23.291Z,33.20
2019-04-26T22:23:00.816Z,31.63
2019-04-26T22:25:33.159Z,30.43
2019-04-26T22:28:03.388Z,30.53
2019-04-26T22:30:33.240Z,31.93
2019-04-26T22:33:03.153Z,32.10
2019-04-26T22:35:32.941Z,31.43
2019-04-26T22:38:04.032Z,33.60
2019-04-26T22:40:33.820Z,30.90
2019-04-26T22:43:15.445Z,32.47
2019-04-26T22:45:46.828Z,32.87
2019-04-26T22:48:23.242Z,29.10
2019-04-26T22:50:52.114Z,30.93
2019-04-26T22:53:21.644Z,30.87
2019-04-26T22:55:53.580Z,31.87
2019-04-26T22:58:25.533Z,31.87
2019-04-26T23:00:58.427Z,33.03
2019-04-26T23:03:26.881Z,30.57
2019-04-26T23:05:56.521Z,32.63
2019-04-26T23:08:26.182Z,33.67
2019-04-26T23:10:58.139Z,30.90
2019-04-26T23:13:33.845Z,30.93
2019-04-26T23:16:11.088Z,27.63
2019-04-26T23:18:57.426Z,27.40
2019-04-26T23:21:31.418Z,24.27
2019-04-26T23:24:01.287Z,25.60
2019-04-26T23:26:33.354Z,24.37
2019-04-26T23:29:03.836Z,25.50
2019-04-26T23:31:33.572Z,23.93
2019-04-26T23:34:03.531Z,25.17
2019-04-26T23:36:34.843Z,23.37
2019-04-26T23:39:07.736Z,22.27
2019-04-26T23:41:41.287Z,22.93
2019-04-26T23:44:09.026Z,20.90
2019-04-26T23:46:38.956Z,21.00
2019-04-26T23:49:08.619Z,22.73
2019-04-26T23:51:44.452Z,23.27
2019-04-26T23:54:09.909Z,24.40
2019-04-26T23:56:39.600Z,22.40
2019-04-26T23:59:09.389Z,23.00
